Incline Village, NV (89452)

2:41 AM PDT on September 20, 2017 (GMT -0700)
MSANNV | | Change Station
Active Advisory: Lake Wind Advisory

Elev 6248 ft 39.19 °N, 119.93 °W | Updated 126 days ago

Clear
Clear
41.0 °F
Feels Like 41.0 °F
N
1.0
Wind Variable Wind from South

Today
High -- | Low -- °F
--% Chance of Precip.
Yesterday
High -- | Low -- °F
Precip. -- in
Pressure 30.06 in
Visibility 10.0 miles
Clouds Clear
Dew Point 28.0 °F
Humidity 59%
Rainfall 0.00 in
Snow Depth Not available.
6:46 AM 6:59 PM
New Moon, 0% visible
METAR KTRK 200915Z AUTO 00000KT 10SM CLR 00/M03 A3006 RMK AO2
Pressure 30.06 in
Visibility 10.0 miles
Clouds Clear
Dew Point 28.0 °F
Humidity 59%
Rainfall 0.00 in
Snow Depth Not available.
6:46 AM 6:59 PM
New Moon, 0% visible
METAR KTRK 200915Z AUTO 00000KT 10SM CLR 00/M03 A3006 RMK AO2

Get Your Daily Forecast Email!

Thanks for signing up!

Be on the lookout for a verification email in your inbox.

You'll start receiving severe weather alerts in your inbox..

×

10-Day Weather Forecast

Almanac

Astronomy

Sep. 20, 2017 Rise Set
Actual Time
Civil Twilight
Nautical Twilight
Astronomical Twilight
Moon
Length of Visible Light
Length of Day
Tomorrow will be .
, % of the Moon is Illuminated

Today's Extremes

State Highs State Lows

Community

WunderPhotos

Category 6

Welcome to Category 6. This is the collective home for Weather Underground's featured writeups by Dr. Jeff Masters (right), Bob Henson (left), Chris Burt, and other regular contributors.

Nearby

Air Quality

  Air Quality AQ Index Pollutant
Not available.

Snow Depth

Station Depth Elevation

Earthquake Activity

City Distance Mag. Time & Date
Minimum magnitude displayed is 2.5.

Coastal Water Temperatures

Place Temperature

Stations

Nearby Weather Stations

Station Location Temp. Windchill Dew Point Humidity Wind Precip. Elev Updated Type
                   

Watches & Warnings

Lake Wind Advisory
Issued: 2:09 PM PDT Sep. 19, 2017 – National Weather Service

... Lake Wind Advisory in effect from noon to 9 PM PDT Wednesday
for Lake Tahoe...

The National Weather Service in Reno has issued a lake Wind
Advisory for Lake Tahoe, which is in effect from noon to 9 PM PDT
Wednesday.

* Winds: southwest to west 15 to 25 mph with gusts to 40 mph.

* Wave heights: 2 to 4 feet for mid-lake to north and east shores.

* Small boats, kayaks and paddle boards will be prone to capsizing
and should remain off lake waters until conditions improve.


Precautionary/preparedness actions...

Check lake conditions before heading out and be prepared for a
sudden increase in winds and wave heights. Consider postponing
boating activities on the lake until a day with less wind.